createdAt,value
2023-01-29T00:00:22.625Z,24.10
2023-01-29T00:01:22.985Z,23.00
2023-01-29T00:02:23.225Z,23.80
2023-01-29T00:03:23.388Z,23.80
2023-01-29T00:04:23.597Z,23.20
2023-01-29T00:05:28.371Z,23.00
2023-01-29T00:06:24.145Z,22.20
2023-01-29T00:07:24.333Z,24.20
2023-01-29T00:08:24.605Z,24.00
2023-01-29T00:09:24.841Z,23.50
2023-01-29T00:10:25.107Z,23.20
2023-01-29T00:11:25.537Z,23.70
2023-01-29T00:12:25.579Z,23.60
2023-01-29T00:13:25.845Z,22.30
2023-01-29T00:14:26.108Z,23.50
2023-01-29T00:15:26.371Z,22.50
2023-01-29T00:16:26.697Z,22.50
2023-01-29T00:17:26.880Z,23.10
2023-01-29T00:18:27.125Z,23.10
2023-01-29T00:19:27.383Z,24.70
2023-01-29T00:20:27.688Z,22.00
2023-01-29T00:21:27.900Z,23.40
2023-01-29T00:22:28.117Z,22.50
2023-01-29T00:23:28.391Z,22.40
2023-01-29T00:24:28.811Z,24.80
2023-01-29T00:25:28.865Z,23.10
2023-01-29T00:26:29.150Z,23.30
2023-01-29T00:27:29.396Z,22.80
2023-01-29T00:28:29.613Z,22.60
2023-01-29T00:29:29.864Z,24.30
2023-01-29T00:30:30.131Z,25.10
2023-01-29T00:31:30.493Z,22.10
2023-01-29T00:32:30.601Z,24.10
2023-01-29T00:33:30.836Z,21.40
2023-01-29T00:34:31.094Z,23.20
2023-01-29T00:35:31.341Z,23.60
2023-01-29T00:36:31.931Z,22.50
2023-01-29T00:37:31.879Z,24.40
2023-01-29T00:38:32.138Z,23.00
2023-01-29T00:39:46.818Z,21.80
2023-01-29T00:40:32.612Z,22.50
2023-01-29T00:41:32.990Z,24.90
2023-01-29T00:42:33.111Z,23.60
2023-01-29T00:43:33.350Z,24.10
2023-01-29T00:44:33.598Z,23.90
2023-01-29T00:45:33.848Z,24.70
2023-01-29T00:46:34.306Z,22.10
2023-01-29T00:47:34.437Z,23.90
2023-01-29T00:48:34.591Z,21.70
2023-01-29T00:49:34.826Z,24.10
2023-01-29T00:50:35.076Z,22.90
2023-01-29T00:51:35.346Z,23.40
2023-01-29T00:52:35.567Z,21.70
2023-01-29T00:53:35.843Z,23.30
2023-01-29T00:54:36.104Z,25.30
2023-01-29T00:55:36.333Z,23.90
2023-01-29T00:56:36.593Z,22.80
2023-01-29T00:57:36.878Z,23.90
2023-01-29T00:58:37.119Z,23.30
2023-01-29T00:59:37.433Z,24.50
2023-01-29T01:00:37.777Z,23.40
2023-01-29T01:01:37.966Z,23.90
2023-01-29T01:02:38.186Z,22.70
2023-01-29T01:03:38.477Z,22.60
2023-01-29T01:04:38.742Z,23.00
2023-01-29T01:05:38.983Z,24.10
2023-01-29T01:06:39.259Z,23.30
2023-01-29T01:07:39.713Z,23.40
2023-01-29T01:08:39.844Z,23.40
2023-01-29T01:09:40.124Z,24.90
2023-01-29T01:10:40.364Z,25.10
2023-01-29T01:11:40.656Z,24.70
2023-01-29T01:12:40.975Z,22.50
2023-01-29T01:13:41.184Z,21.90
2023-01-29T01:14:41.449Z,24.10
2023-01-29T01:15:41.712Z,23.80
2023-01-29T01:16:41.992Z,22.90
2023-01-29T01:17:42.265Z,23.00
2023-01-29T01:18:42.497Z,23.10
2023-01-29T01:19:42.761Z,23.60
2023-01-29T01:20:43.063Z,23.90
2023-01-29T01:21:43.288Z,23.60
2023-01-29T01:22:43.568Z,24.50
2023-01-29T01:23:43.857Z,23.90
2023-01-29T01:24:44.119Z,23.60
2023-01-29T01:25:44.398Z,22.00
2023-01-29T01:26:44.653Z,25.20
2023-01-29T01:27:44.909Z,25.40
2023-01-29T01:28:45.167Z,25.20
2023-01-29T01:29:45.480Z,25.00
2023-01-29T01:30:45.837Z,23.20
2023-01-29T01:31:46.092Z,24.30
2023-01-29T01:32:46.239Z,25.20
2023-01-29T01:33:46.494Z,24.10
2023-01-29T01:34:46.751Z,23.10
2023-01-29T01:35:47.092Z,24.00
2023-01-29T01:36:47.289Z,24.60
2023-01-29T01:37:47.570Z,24.50
2023-01-29T01:38:47.822Z,25.30
2023-01-29T01:39:48.062Z,25.30
2023-01-29T01:40:48.551Z,27.20
2023-01-29T01:41:48.599Z,23.40
2023-01-29T01:42:48.829Z,23.20
2023-01-29T01:43:49.086Z,25.00
2023-01-29T01:44:49.390Z,25.00
2023-01-29T01:45:49.662Z,24.80
2023-01-29T01:46:49.908Z,24.90
2023-01-29T01:47:50.246Z,24.50
2023-01-29T01:48:50.380Z,25.40
2023-01-29T01:49:50.643Z,24.50
2023-01-29T01:50:50.892Z,25.40
2023-01-29T01:51:51.147Z,25.90
2023-01-29T01:52:51.403Z,25.30
2023-01-29T01:53:51.622Z,24.80
2023-01-29T01:54:51.833Z,24.40
2023-01-29T01:55:52.073Z,24.10
2023-01-29T01:56:52.264Z,24.70
2023-01-29T01:57:52.559Z,25.40
2023-01-29T01:58:52.695Z,25.20
2023-01-29T01:59:52.919Z,23.00
2023-01-29T02:00:53.196Z,24.00
2023-01-29T02:01:53.374Z,23.50
2023-01-29T02:02:53.663Z,26.00
2023-01-29T02:03:53.799Z,25.30
2023-01-29T02:04:54.038Z,24.70
2023-01-29T02:05:54.274Z,23.10
2023-01-29T02:06:54.509Z,24.20
2023-01-29T02:07:54.885Z,27.10
2023-01-29T02:08:55.014Z,23.10
2023-01-29T02:09:55.219Z,25.30
2023-01-29T02:10:55.444Z,23.20
2023-01-29T02:11:55.669Z,23.40
2023-01-29T02:12:55.915Z,21.90
2023-01-29T02:13:56.131Z,23.50
2023-01-29T02:14:56.570Z,21.90
2023-01-29T02:15:56.592Z,22.50
2023-01-29T02:16:56.829Z,24.50
2023-01-29T02:17:57.051Z,24.20
2023-01-29T02:18:57.282Z,23.70
2023-01-29T02:19:57.558Z,22.10
2023-01-29T02:20:57.836Z,22.60
2023-01-29T02:21:58.018Z,21.80
2023-01-29T02:22:58.262Z,25.40
2023-01-29T02:23:58.666Z,24.40
2023-01-29T02:24:58.827Z,22.50
2023-01-29T02:25:59.026Z,22.80
2023-01-29T02:26:59.278Z,22.30
2023-01-29T02:27:59.524Z,23.60
2023-01-29T02:28:59.787Z,21.90
2023-01-29T02:30:00.161Z,21.70
2023-01-29T02:31:00.420Z,22.40
2023-01-29T02:32:00.573Z,21.80
2023-01-29T02:33:00.779Z,21.50
2023-01-29T02:34:01.052Z,21.70
2023-01-29T02:35:01.313Z,23.20
2023-01-29T02:36:01.547Z,24.10
2023-01-29T02:37:02.147Z,22.90
2023-01-29T02:38:02.044Z,24.50
2023-01-29T02:39:02.287Z,23.80
2023-01-29T02:40:02.499Z,22.20
2023-01-29T02:41:02.761Z,22.70
2023-01-29T02:42:03.108Z,23.80
2023-01-29T02:43:03.271Z,23.90
2023-01-29T02:44:03.547Z,22.30
2023-01-29T02:45:03.817Z,22.30
2023-01-29T02:46:04.142Z,22.50
2023-01-29T02:47:04.352Z,22.70
2023-01-29T02:48:04.577Z,23.00
2023-01-29T02:49:04.845Z,23.50
2023-01-29T02:50:05.120Z,22.20
2023-01-29T02:51:05.390Z,22.50
2023-01-29T02:52:05.683Z,23.40
2023-01-29T02:53:05.902Z,23.80
2023-01-29T02:54:06.189Z,23.50
2023-01-29T02:55:06.403Z,24.50
2023-01-29T02:56:06.643Z,23.90
2023-01-29T02:57:06.964Z,24.40
2023-01-29T02:58:07.150Z,25.10
2023-01-29T02:59:07.386Z,23.00
2023-01-29T03:00:07.648Z,24.50
2023-01-29T03:01:07.983Z,23.60
2023-01-29T03:02:08.323Z,23.20
2023-01-29T03:03:08.363Z,23.10
2023-01-29T03:04:08.626Z,22.90
2023-01-29T03:05:08.881Z,21.50
2023-01-29T03:06:09.139Z,25.10
2023-01-29T03:07:09.420Z,23.30
2023-01-29T03:08:09.636Z,24.20
2023-01-29T03:09:09.905Z,23.00
2023-01-29T03:10:10.166Z,23.70
2023-01-29T03:11:10.383Z,23.10
2023-01-29T03:12:10.632Z,23.30
2023-01-29T03:13:10.893Z,23.20
2023-01-29T03:14:11.157Z,24.00
2023-01-29T03:15:11.496Z,24.40
2023-01-29T03:16:11.676Z,23.50
2023-01-29T03:17:11.948Z,24.40
2023-01-29T03:18:12.147Z,25.40
2023-01-29T03:19:12.380Z,23.60
2023-01-29T03:20:12.643Z,25.00
2023-01-29T03:21:12.850Z,24.20
2023-01-29T03:22:13.092Z,26.50
2023-01-29T03:23:13.324Z,26.10
2023-01-29T03:24:13.598Z,24.90
2023-01-29T03:25:13.804Z,24.00
2023-01-29T03:26:14.022Z,24.70
2023-01-29T03:27:14.227Z,23.30
2023-01-29T03:28:14.455Z,23.80
2023-01-29T03:29:14.687Z,26.00
2023-01-29T03:30:15.375Z,24.00
2023-01-29T03:31:15.191Z,23.00
2023-01-29T03:32:15.469Z,25.00
2023-01-29T03:33:15.601Z,24.90
2023-01-29T03:34:18.586Z,25.90
2023-01-29T03:35:16.068Z,24.60
2023-01-29T03:36:16.317Z,24.70
2023-01-29T03:37:16.598Z,24.00
2023-01-29T03:38:16.827Z,25.50
2023-01-29T03:39:17.108Z,25.60
2023-01-29T03:40:17.805Z,25.10
2023-01-29T03:41:17.579Z,24.70
2023-01-29T03:42:17.880Z,26.10
2023-01-29T03:43:18.090Z,25.30
2023-01-29T03:44:18.341Z,24.90
2023-01-29T03:45:18.597Z,26.70
2023-01-29T03:46:18.877Z,25.90
2023-01-29T03:47:19.138Z,25.80
2023-01-29T03:48:19.353Z,25.80
2023-01-29T03:49:19.606Z,26.40
2023-01-29T03:50:20.401Z,26.20
2023-01-29T03:51:20.145Z,25.30
2023-01-29T03:52:20.377Z,27.00
2023-01-29T03:53:20.630Z,28.40
2023-01-29T03:54:20.887Z,24.50
2023-01-29T03:55:21.206Z,26.10
2023-01-29T03:56:21.402Z,26.60
2023-01-29T03:57:21.656Z,25.80
2023-01-29T03:58:21.905Z,28.40
2023-01-29T03:59:22.157Z,27.60
2023-01-29T04:00:22.459Z,25.30
2023-01-29T04:01:22.849Z,25.40
2023-01-29T04:02:22.920Z,25.30
2023-01-29T04:03:23.208Z,24.80
2023-01-29T04:04:23.481Z,25.10
2023-01-29T04:05:23.689Z,23.90
2023-01-29T04:06:24.080Z,27.80
2023-01-29T04:07:24.203Z,23.40
2023-01-29T04:08:24.437Z,25.20
2023-01-29T04:09:24.694Z,26.30
2023-01-29T04:10:24.965Z,24.90
2023-01-29T04:11:25.223Z,25.50
2023-01-29T04:12:25.434Z,25.30
2023-01-29T04:13:25.759Z,24.80
2023-01-29T04:14:25.973Z,25.00
2023-01-29T04:15:26.167Z,25.10
2023-01-29T04:16:26.508Z,23.20
2023-01-29T04:17:26.631Z,25.70
2023-01-29T04:18:26.877Z,23.70
2023-01-29T04:19:27.237Z,25.40
2023-01-29T04:20:27.377Z,24.40
2023-01-29T04:21:27.623Z,25.40
2023-01-29T04:22:27.885Z,24.20
2023-01-29T04:23:28.112Z,25.00
2023-01-29T04:24:28.414Z,25.00
2023-01-29T04:25:28.637Z,24.30
2023-01-29T04:26:28.886Z,25.40
2023-01-29T04:27:29.124Z,24.30
2023-01-29T04:28:29.353Z,23.80
2023-01-29T04:29:30.273Z,23.60
2023-01-29T04:30:29.864Z,25.50
2023-01-29T04:31:30.159Z,24.70
2023-01-29T04:32:30.335Z,23.60
2023-01-29T04:33:30.566Z,23.60
2023-01-29T04:34:30.889Z,23.00
2023-01-29T04:35:31.069Z,23.90
2023-01-29T04:36:31.322Z,24.40
2023-01-29T04:37:31.560Z,23.90
2023-01-29T04:38:31.819Z,22.60
2023-01-29T04:39:32.195Z,22.00
2023-01-29T04:40:32.321Z,22.30
2023-01-29T04:41:32.541Z,24.30
2023-01-29T04:42:32.881Z,22.50
2023-01-29T04:43:33.015Z,22.40
2023-01-29T04:44:33.356Z,21.80
2023-01-29T04:45:33.475Z,23.00
2023-01-29T04:46:33.683Z,23.10
2023-01-29T04:47:33.961Z,22.10
2023-01-29T04:48:34.137Z,22.70
2023-01-29T04:49:34.454Z,22.40
2023-01-29T04:50:34.620Z,21.50
2023-01-29T04:51:35.070Z,21.70
2023-01-29T04:52:35.075Z,22.90
2023-01-29T04:53:35.308Z,22.80
2023-01-29T04:54:35.570Z,21.10
2023-01-29T04:55:35.888Z,20.10
2023-01-29T04:56:36.017Z,21.30
2023-01-29T04:57:36.233Z,22.30
2023-01-29T04:58:36.601Z,20.50
2023-01-29T04:59:36.707Z,21.70
2023-01-29T05:00:36.956Z,20.70
2023-01-29T05:01:37.189Z,21.70
2023-01-29T05:02:37.375Z,21.40
2023-01-29T05:03:37.610Z,21.10
2023-01-29T05:04:37.814Z,22.20
2023-01-29T05:05:38.087Z,22.40
2023-01-29T05:06:38.321Z,21.60
2023-01-29T05:07:38.582Z,22.40
2023-01-29T05:08:38.841Z,22.90
2023-01-29T05:09:39.098Z,22.40
2023-01-29T05:10:39.482Z,22.30
2023-01-29T05:11:39.630Z,22.20
2023-01-29T05:12:39.890Z,23.30
2023-01-29T05:13:40.158Z,21.80
2023-01-29T05:14:40.419Z,22.10
2023-01-29T05:15:40.887Z,22.30
2023-01-29T05:16:40.948Z,23.40
2023-01-29T05:17:41.206Z,23.70
2023-01-29T05:18:41.472Z,22.80
2023-01-29T05:19:41.726Z,22.30
2023-01-29T05:20:42.016Z,23.20
2023-01-29T05:21:42.284Z,22.40
2023-01-29T05:22:42.503Z,23.80
2023-01-29T05:23:42.761Z,22.20
2023-01-29T05:24:43.057Z,22.90
2023-01-29T05:25:43.307Z,22.60
2023-01-29T05:26:43.609Z,22.80
2023-01-29T05:27:43.846Z,23.10
2023-01-29T05:28:44.102Z,24.00
2023-01-29T05:29:44.362Z,24.80
2023-01-29T05:30:44.735Z,25.00
2023-01-29T05:31:45.128Z,24.50
2023-01-29T05:32:45.154Z,24.50
2023-01-29T05:33:45.409Z,24.20
2023-01-29T05:34:45.681Z,23.10
2023-01-29T05:35:45.955Z,25.20
2023-01-29T05:36:46.255Z,25.30
2023-01-29T05:37:46.474Z,25.30
2023-01-29T05:38:46.739Z,23.40
2023-01-29T05:39:47.047Z,24.70
2023-01-29T05:40:47.271Z,24.50
2023-01-29T05:41:47.542Z,24.80
2023-01-29T05:42:47.793Z,25.40
2023-01-29T05:43:48.026Z,24.30
2023-01-29T05:44:48.322Z,25.50
2023-01-29T05:45:48.535Z,26.90
2023-01-29T05:46:48.833Z,26.90
2023-01-29T05:47:49.112Z,27.40
2023-01-29T05:48:49.313Z,27.60
2023-01-29T05:49:49.577Z,28.40
2023-01-29T05:50:49.832Z,28.40
2023-01-29T05:51:50.073Z,28.30
2023-01-29T05:52:50.367Z,27.10
2023-01-29T05:53:50.666Z,29.90
2023-01-29T05:54:50.895Z,29.00
2023-01-29T05:55:51.112Z,28.60
2023-01-29T05:56:51.372Z,28.80
2023-01-29T05:57:51.627Z,30.30
2023-01-29T05:58:51.904Z,28.60
2023-01-29T05:59:52.147Z,29.10
2023-01-29T06:00:52.402Z,27.60
2023-01-29T06:01:52.819Z,28.10
2023-01-29T06:02:53.045Z,30.30
2023-01-29T06:03:53.170Z,29.90
2023-01-29T06:04:53.387Z,28.50
2023-01-29T06:05:53.654Z,30.60
2023-01-29T06:06:53.907Z,28.30
2023-01-29T06:07:54.148Z,29.10
2023-01-29T06:08:54.437Z,29.40
2023-01-29T06:09:54.679Z,31.00
2023-01-29T06:10:54.984Z,31.60
2023-01-29T06:11:55.215Z,29.50
2023-01-29T06:12:55.468Z,30.10
2023-01-29T06:13:55.883Z,31.90
2023-01-29T06:14:55.989Z,31.00
2023-01-29T06:15:56.301Z,30.30
2023-01-29T06:16:56.521Z,30.10
2023-01-29T06:17:56.795Z,30.50
2023-01-29T06:18:57.093Z,32.40
2023-01-29T06:19:57.347Z,33.00
2023-01-29T06:20:57.584Z,32.90
2023-01-29T06:21:57.988Z,31.50
2023-01-29T06:22:58.076Z,32.90
2023-01-29T06:23:58.392Z,32.70
2023-01-29T06:24:58.622Z,31.90
2023-01-29T06:25:58.877Z,34.10
2023-01-29T06:26:59.249Z,34.60
2023-01-29T06:27:59.695Z,35.80
2023-01-29T06:28:59.663Z,34.30
2023-01-29T06:29:59.933Z,35.80
2023-01-29T06:31:11.328Z,36.60
2023-01-29T06:32:00.740Z,34.10
2023-01-29T06:33:00.724Z,38.00
2023-01-29T06:34:00.973Z,35.00
2023-01-29T06:35:01.226Z,36.10
2023-01-29T06:36:01.491Z,34.80
2023-01-29T06:37:01.794Z,35.20
2023-01-29T06:38:02.043Z,37.30
2023-01-29T06:39:02.412Z,35.90
2023-01-29T06:40:02.583Z,37.20
2023-01-29T06:41:02.861Z,36.10
2023-01-29T06:42:03.112Z,37.70
2023-01-29T06:43:03.390Z,38.50
2023-01-29T06:44:03.668Z,38.10
2023-01-29T06:45:03.885Z,38.00
2023-01-29T06:46:04.149Z,38.10
2023-01-29T06:47:04.410Z,38.80
2023-01-29T06:48:04.675Z,38.10
2023-01-29T06:49:04.980Z,39.60
2023-01-29T06:50:05.209Z,41.00
2023-01-29T06:51:05.482Z,39.40
2023-01-29T06:52:05.733Z,39.60
2023-01-29T06:53:05.989Z,39.40
2023-01-29T06:54:06.303Z,43.70
2023-01-29T06:55:06.511Z,40.00
2023-01-29T06:56:06.775Z,42.70
2023-01-29T06:57:07.029Z,43.10
2023-01-29T06:58:07.303Z,41.90
2023-01-29T06:59:07.585Z,44.20
2023-01-29T07:00:07.848Z,43.70
2023-01-29T07:01:08.293Z,45.80
2023-01-29T07:02:08.475Z,45.40
2023-01-29T07:03:08.611Z,42.90
2023-01-29T07:04:08.878Z,44.40
2023-01-29T07:05:09.125Z,45.90
2023-01-29T07:06:09.421Z,46.40
2023-01-29T07:07:09.657Z,45.00
2023-01-29T07:08:09.921Z,46.00
2023-01-29T07:09:10.182Z,45.20
2023-01-29T07:10:10.483Z,45.30
2023-01-29T07:11:10.716Z,48.00
2023-01-29T07:12:10.997Z,45.00
2023-01-29T07:13:11.258Z,45.90
2023-01-29T07:14:11.658Z,47.10
2023-01-29T07:15:11.802Z,47.10
2023-01-29T07:16:12.108Z,46.80
2023-01-29T07:17:12.371Z,46.90
2023-01-29T07:18:12.637Z,47.00
2023-01-29T07:19:12.901Z,48.50
2023-01-29T07:20:13.142Z,44.70
2023-01-29T07:21:13.389Z,48.00
2023-01-29T07:22:13.646Z,47.90
2023-01-29T07:23:13.944Z,48.70
2023-01-29T07:24:14.248Z,46.70
2023-01-29T07:25:14.443Z,44.30
2023-01-29T07:26:14.683Z,49.00
2023-01-29T07:27:14.884Z,50.50
2023-01-29T07:28:15.131Z,47.10
2023-01-29T07:29:15.405Z,45.60
2023-01-29T07:30:16.118Z,46.20
2023-01-29T07:31:15.956Z,50.00
2023-01-29T07:32:16.128Z,48.10
2023-01-29T07:33:16.289Z,48.90
2023-01-29T07:34:16.611Z,48.90
2023-01-29T07:35:16.772Z,47.60
2023-01-29T07:36:17.023Z,46.20
2023-01-29T07:37:17.243Z,47.20
2023-01-29T07:38:17.489Z,49.00
2023-01-29T07:39:17.821Z,50.70
2023-01-29T07:40:18.248Z,48.00
2023-01-29T07:41:18.200Z,49.70
2023-01-29T07:42:18.437Z,51.40
2023-01-29T07:43:18.674Z,46.60
2023-01-29T07:44:18.965Z,49.50
2023-01-29T07:45:19.164Z,50.10
2023-01-29T07:46:19.387Z,49.10
2023-01-29T07:47:19.616Z,49.80
2023-01-29T07:48:19.871Z,49.10
2023-01-29T07:49:20.105Z,51.40
2023-01-29T07:50:20.291Z,51.20
2023-01-29T07:51:20.535Z,48.90
2023-01-29T07:52:22.312Z,48.70
2023-01-29T07:53:20.952Z,50.00
2023-01-29T07:54:21.182Z,49.80
2023-01-29T07:55:21.409Z,49.70
2023-01-29T07:56:21.695Z,47.80
2023-01-29T07:57:21.861Z,51.00
2023-01-29T07:58:22.089Z,46.60
2023-01-29T07:59:22.320Z,49.80
2023-01-29T08:00:22.570Z,48.30
2023-01-29T08:01:22.889Z,48.40
2023-01-29T08:02:23.054Z,47.50
2023-01-29T08:03:23.273Z,49.60
2023-01-29T08:04:23.505Z,49.40
2023-01-29T08:05:23.720Z,46.70
2023-01-29T08:06:23.987Z,48.20
2023-01-29T08:07:24.170Z,47.80
2023-01-29T08:08:24.463Z,47.20
2023-01-29T08:09:24.615Z,49.10
2023-01-29T08:10:24.852Z,46.40
2023-01-29T08:11:25.108Z,47.90
2023-01-29T08:12:25.296Z,46.90
2023-01-29T08:13:25.517Z,49.70
2023-01-29T08:14:25.737Z,45.90
2023-01-29T08:15:25.976Z,48.30
2023-01-29T08:16:26.363Z,48.40
2023-01-29T08:17:26.444Z,47.50
2023-01-29T08:18:26.683Z,47.20
2023-01-29T08:19:26.914Z,47.30
2023-01-29T08:20:27.295Z,46.50
2023-01-29T08:21:27.427Z,47.50
2023-01-29T08:22:27.637Z,47.50
2023-01-29T08:23:27.939Z,49.00
2023-01-29T08:24:36.105Z,46.70
2023-01-29T08:25:28.601Z,45.40
2023-01-29T08:26:28.665Z,48.10
2023-01-29T08:27:28.909Z,48.00
2023-01-29T08:28:29.185Z,47.10
2023-01-29T08:29:29.393Z,46.10
2023-01-29T08:30:29.710Z,47.30
2023-01-29T08:31:29.953Z,47.00
2023-01-29T08:32:30.121Z,47.60
2023-01-29T08:34:30.611Z,45.90
2023-01-29T08:35:30.978Z,44.90
2023-01-29T08:36:31.106Z,45.90
2023-01-29T08:37:31.376Z,47.50
2023-01-29T08:38:31.577Z,45.30
2023-01-29T08:39:33.680Z,47.10
2023-01-29T08:40:32.156Z,45.90
2023-01-29T08:41:32.301Z,46.50
2023-01-29T08:42:32.540Z,46.10
2023-01-29T08:43:32.799Z,45.50
2023-01-29T08:44:33.176Z,46.80
2023-01-29T08:45:33.285Z,45.10
2023-01-29T08:46:33.515Z,48.00
2023-01-29T08:47:33.766Z,45.50
2023-01-29T08:48:34.002Z,45.90
2023-01-29T08:49:34.269Z,44.50
2023-01-29T08:50:34.474Z,46.70
2023-01-29T08:51:34.761Z,45.70
2023-01-29T08:52:34.971Z,45.90
2023-01-29T08:53:35.205Z,48.20
2023-01-29T08:54:35.458Z,46.80
2023-01-29T08:55:35.683Z,46.80
2023-01-29T08:56:35.979Z,46.90
2023-01-29T08:57:36.181Z,44.20
2023-01-29T08:58:36.553Z,44.60
2023-01-29T08:59:36.683Z,47.70
2023-01-29T09:00:36.930Z,44.80
2023-01-29T09:01:37.197Z,46.40
2023-01-29T09:02:37.462Z,45.90
2023-01-29T09:03:37.701Z,48.10
2023-01-29T09:04:37.885Z,49.60
2023-01-29T09:05:38.118Z,47.70
2023-01-29T09:06:38.359Z,48.50
2023-01-29T09:07:38.594Z,47.50
2023-01-29T09:08:38.873Z,47.30
2023-01-29T09:09:39.073Z,49.70
2023-01-29T09:10:39.325Z,50.10
2023-01-29T09:11:39.562Z,51.60
2023-01-29T09:12:39.825Z,51.40
2023-01-29T09:13:40.087Z,53.00
2023-01-29T09:14:40.289Z,51.70
2023-01-29T09:15:40.546Z,53.50
2023-01-29T09:16:40.968Z,58.00
2023-01-29T09:17:41.079Z,55.90
2023-01-29T09:18:41.310Z,55.90
2023-01-29T09:19:41.485Z,55.30
2023-01-29T09:20:41.711Z,56.70
2023-01-29T09:21:41.973Z,58.40
2023-01-29T09:22:42.197Z,59.40
2023-01-29T09:23:42.471Z,58.20
2023-01-29T09:24:42.720Z,55.30
2023-01-29T09:25:42.933Z,58.30
2023-01-29T09:26:43.447Z,60.40
2023-01-29T09:27:43.508Z,58.50
2023-01-29T09:28:43.689Z,60.30
2023-01-29T09:29:43.937Z,58.30
2023-01-29T09:30:44.315Z,61.60
2023-01-29T09:31:44.567Z,59.00
2023-01-29T09:32:53.862Z,60.10
2023-01-29T09:33:45.003Z,58.90
2023-01-29T09:34:45.177Z,56.50
2023-01-29T09:35:45.416Z,62.30
2023-01-29T09:36:45.624Z,57.00
2023-01-29T09:37:45.846Z,58.10
2023-01-29T09:38:46.243Z,58.30
2023-01-29T09:39:46.325Z,56.00
2023-01-29T09:40:46.566Z,56.20
2023-01-29T09:41:46.835Z,56.50
2023-01-29T09:42:47.087Z,53.60
2023-01-29T09:43:47.507Z,58.30
2023-01-29T09:44:47.592Z,58.50
2023-01-29T09:45:47.862Z,55.10
2023-01-29T09:46:48.090Z,55.60
2023-01-29T09:47:48.344Z,54.90
2023-01-29T09:48:48.638Z,56.60
2023-01-29T09:49:48.852Z,53.60
2023-01-29T09:50:49.116Z,53.40
2023-01-29T09:51:49.347Z,55.70
2023-01-29T09:52:49.593Z,53.90
2023-01-29T09:53:49.883Z,55.50
2023-01-29T09:54:50.129Z,54.80
2023-01-29T09:55:50.483Z,52.10
2023-01-29T09:56:50.592Z,53.80
2023-01-29T09:57:50.845Z,53.40
2023-01-29T09:58:51.084Z,54.40
2023-01-29T09:59:51.334Z,51.90
2023-01-29T10:00:51.611Z,53.70
2023-01-29T10:01:51.946Z,51.40
2023-01-29T10:02:52.053Z,52.90
2023-01-29T10:03:52.295Z,50.80
2023-01-29T10:04:52.618Z,50.40
2023-01-29T10:05:52.821Z,47.80
2023-01-29T10:06:53.070Z,48.70
2023-01-29T10:07:53.262Z,48.90
2023-01-29T10:08:53.500Z,46.90
2023-01-29T10:09:53.727Z,45.60
2023-01-29T10:10:54.012Z,46.90
2023-01-29T10:11:56.306Z,46.30
2023-01-29T10:12:54.493Z,45.10
2023-01-29T10:13:54.662Z,45.10
2023-01-29T10:14:54.905Z,43.00
2023-01-29T10:15:55.153Z,47.40
2023-01-29T10:16:55.467Z,43.20
2023-01-29T10:17:55.677Z,44.70
2023-01-29T10:18:55.860Z,42.70
2023-01-29T10:19:56.090Z,42.40
2023-01-29T10:20:56.326Z,44.00
2023-01-29T10:21:56.574Z,41.90
2023-01-29T10:22:56.891Z,43.40
2023-01-29T10:23:57.060Z,41.50
2023-01-29T10:24:57.302Z,42.60
2023-01-29T10:25:57.534Z,42.20
2023-01-29T10:26:57.763Z,42.10
2023-01-29T10:27:58.032Z,40.50
2023-01-29T10:28:58.213Z,39.80
2023-01-29T10:29:58.473Z,41.00
2023-01-29T10:30:58.822Z,40.50
2023-01-29T10:31:59.023Z,41.20
2023-01-29T10:32:59.142Z,38.40
2023-01-29T10:34:03.192Z,41.40
2023-01-29T10:34:59.573Z,41.20
2023-01-29T10:35:59.841Z,40.10
2023-01-29T10:37:00.041Z,37.90
2023-01-29T10:38:00.288Z,39.30
2023-01-29T10:39:00.535Z,40.70
2023-01-29T10:40:00.725Z,37.50
2023-01-29T10:41:00.959Z,37.90
2023-01-29T10:42:01.189Z,36.90
2023-01-29T10:43:01.448Z,37.00
2023-01-29T10:44:01.687Z,39.70
2023-01-29T10:45:01.908Z,37.70
2023-01-29T10:46:02.180Z,36.30
2023-01-29T10:47:02.398Z,38.30
2023-01-29T10:48:02.610Z,37.20
2023-01-29T10:49:02.850Z,36.30
2023-01-29T10:50:03.224Z,37.70
2023-01-29T10:51:03.303Z,35.40
2023-01-29T10:52:03.515Z,38.10
2023-01-29T10:53:03.751Z,38.40
2023-01-29T10:54:03.967Z,39.30
2023-01-29T10:55:04.236Z,38.40
2023-01-29T10:56:13.979Z,39.40
2023-01-29T10:57:04.652Z,38.90
2023-01-29T10:58:04.881Z,37.40
2023-01-29T10:59:05.119Z,38.30
2023-01-29T11:00:05.404Z,35.80
2023-01-29T11:01:05.569Z,38.70
2023-01-29T11:02:05.801Z,39.70
2023-01-29T11:03:10.112Z,39.20
2023-01-29T11:04:06.223Z,37.40
2023-01-29T11:05:06.475Z,40.20
2023-01-29T11:06:06.677Z,38.40
2023-01-29T11:07:06.864Z,38.30
2023-01-29T11:08:07.097Z,40.60
2023-01-29T11:09:07.320Z,38.90
2023-01-29T11:10:07.664Z,39.70
2023-01-29T11:11:07.813Z,37.50
2023-01-29T11:12:07.986Z,37.80
2023-01-29T11:13:08.206Z,40.20
2023-01-29T11:14:08.425Z,40.70
2023-01-29T11:15:08.651Z,39.90
2023-01-29T11:16:09.041Z,40.30
2023-01-29T11:17:09.176Z,40.10
2023-01-29T11:18:09.329Z,38.80
2023-01-29T11:19:09.555Z,38.00
2023-01-29T11:20:09.778Z,40.00
2023-01-29T11:21:10.092Z,40.10
2023-01-29T11:22:10.216Z,39.40
2023-01-29T11:23:10.430Z,39.10
2023-01-29T11:24:10.642Z,39.70
2023-01-29T11:25:10.867Z,40.30
2023-01-29T11:26:11.147Z,38.60
2023-01-29T11:27:11.357Z,41.20
2023-01-29T11:28:11.530Z,41.30
2023-01-29T11:29:11.755Z,42.10
2023-01-29T11:30:11.978Z,41.70
2023-01-29T11:31:12.288Z,42.50
2023-01-29T11:32:12.448Z,41.80
2023-01-29T11:33:12.656Z,41.10
2023-01-29T11:34:12.896Z,42.10
2023-01-29T11:35:13.121Z,42.90
2023-01-29T11:36:13.406Z,41.50
2023-01-29T11:37:13.600Z,41.30
2023-01-29T11:38:13.864Z,42.00
2023-01-29T11:39:14.061Z,45.60
2023-01-29T11:40:14.694Z,44.70
2023-01-29T11:41:14.546Z,43.80
2023-01-29T11:42:15.150Z,40.60
2023-01-29T11:43:15.165Z,42.40
2023-01-29T11:44:15.245Z,42.10
2023-01-29T11:45:15.488Z,42.70
2023-01-29T11:46:15.841Z,42.30
2023-01-29T11:47:15.996Z,42.50
2023-01-29T11:48:16.241Z,42.90
2023-01-29T11:49:20.852Z,40.40
2023-01-29T11:50:17.140Z,42.60
2023-01-29T11:51:16.929Z,43.40
2023-01-29T11:52:17.156Z,43.10
2023-01-29T11:53:17.390Z,41.80
2023-01-29T11:54:17.624Z,41.70
2023-01-29T11:55:17.891Z,43.40
2023-01-29T11:56:18.104Z,44.70
2023-01-29T11:57:19.414Z,43.10
2023-01-29T11:58:18.576Z,42.70
2023-01-29T11:59:18.767Z,41.90
2023-01-29T12:00:19.326Z,43.20
2023-01-29T12:01:19.227Z,43.30
2023-01-29T12:02:19.389Z,45.00
2023-01-29T12:03:19.591Z,44.30
2023-01-29T12:04:19.800Z,44.60
2023-01-29T12:05:19.998Z,44.30
2023-01-29T12:06:20.250Z,44.40
2023-01-29T12:07:20.399Z,42.30
2023-01-29T12:08:20.601Z,42.40
2023-01-29T12:09:20.789Z,43.40
2023-01-29T12:10:21.001Z,41.30
2023-01-29T12:11:21.282Z,41.40
2023-01-29T12:12:21.397Z,41.50
2023-01-29T12:13:21.606Z,42.80
2023-01-29T12:14:21.790Z,41.50
2023-01-29T12:15:22.180Z,41.70
2023-01-29T12:16:22.265Z,41.90
2023-01-29T12:17:22.373Z,39.70
2023-01-29T12:18:22.572Z,43.10
2023-01-29T12:19:22.800Z,40.60
2023-01-29T12:20:22.968Z,41.50
2023-01-29T12:21:23.159Z,41.40
2023-01-29T12:22:23.391Z,42.90
2023-01-29T12:23:23.564Z,43.00
2023-01-29T12:24:23.778Z,42.90
2023-01-29T12:25:24.370Z,40.10
2023-01-29T12:26:24.250Z,40.30
2023-01-29T12:27:24.401Z,41.90
2023-01-29T12:28:24.610Z,40.30
2023-01-29T12:29:24.822Z,41.20
2023-01-29T12:30:25.126Z,41.80
2023-01-29T12:31:25.310Z,41.70
2023-01-29T12:32:25.463Z,42.00
2023-01-29T12:33:25.680Z,40.60
2023-01-29T12:34:25.885Z,40.40
2023-01-29T12:35:26.143Z,40.40
2023-01-29T12:36:26.339Z,40.60
2023-01-29T12:37:26.575Z,40.40
2023-01-29T12:38:26.806Z,41.10
2023-01-29T12:39:27.030Z,39.30
2023-01-29T12:40:27.285Z,39.60
2023-01-29T12:41:27.482Z,37.30
2023-01-29T12:42:27.716Z,40.20
2023-01-29T12:43:28.002Z,39.70
2023-01-29T12:44:28.189Z,40.70
2023-01-29T12:45:28.411Z,41.10
2023-01-29T12:46:28.685Z,40.70
2023-01-29T12:47:28.884Z,42.80
2023-01-29T12:48:29.229Z,41.00
2023-01-29T12:49:29.336Z,42.40
2023-01-29T12:50:29.561Z,42.00
2023-01-29T12:51:29.792Z,42.70
2023-01-29T12:52:30.037Z,41.70
2023-01-29T12:53:30.308Z,42.60
2023-01-29T12:54:30.491Z,41.00
2023-01-29T12:55:30.732Z,42.20
2023-01-29T12:56:31.011Z,43.60